Time;durP1;ratioP1;P1;durP2;ratioP2;P2;SDS_P1;SDS_P2;PMS_P1;PMS_P2;Temp;Humidity;BMP_temperature;BMP_pressure;BME280_temperature;BME280_humidity;BME280_pressure;Samples;Min_cycle;Max_cycle;Signal;HPM_P1;HPM_P2
2023/09/16 00:06:20;;;;;;;6.62;4.40;;;;;;;15.35;100.00;97596.09;18560989;32;20112;-57
2023/09/16 00:16:22;;;;;;;8.82;4.25;;;;;;;15.22;100.00;97595.78;18560243;32;20397;-57
2023/09/16 00:26:24;;;;;;;6.28;4.18;;;;;;;15.20;100.00;97595.28;18545732;32;20104;-57
2023/09/16 00:36:26;;;;;;;6.25;5.10;;;;;;;15.18;100.00;97596.69;18544842;32;20342;-57
2023/09/16 00:46:29;;;;;;;5.65;4.60;;;;;;;15.18;100.00;97604.84;18559070;32;20111;-56
2023/09/16 00:56:31;;;;;;;5.40;4.18;;;;;;;15.11;100.00;97612.62;18544088;32;20052;-57
2023/09/16 01:06:34;;;;;;;5.37;3.85;;;;;;;15.02;100.00;97609.75;18568510;31;20398;-56
2023/09/16 01:16:44;;;;;;;7.43;4.10;;;;;;;15.00;100.00;97601.09;18555423;32;20471;-56
2023/09/16 01:26:47;;;;;;;6.70;4.28;;;;;;;14.96;100.00;97600.09;18569881;32;20049;-57
2023/09/16 01:36:52;;;;;;;7.87;4.50;;;;;;;14.89;100.00;97601.28;18569111;32;20488;-56
2023/09/16 01:46:55;;;;;;;6.15;4.53;;;;;;;14.83;100.00;97601.69;18568417;32;20044;-57
2023/09/16 01:56:57;;;;;;;8.73;4.18;;;;;;;14.81;100.00;97593.00;18567888;32;20076;-56
2023/09/16 02:06:59;;;;;;;4.65;4.07;;;;;;;14.74;100.00;97596.09;18567719;32;20116;-56
2023/09/16 02:17:02;;;;;;;7.10;4.55;;;;;;;14.72;100.00;97590.19;18566019;32;20056;-56
2023/09/16 02:27:04;;;;;;;4.93;4.22;;;;;;;14.75;100.00;97592.28;18566709;32;20503;-57
2023/09/16 02:37:07;;;;;;;5.30;4.05;;;;;;;14.65;100.00;97589.72;18550885;32;20071;-56
2023/09/16 02:47:10;;;;;;;4.95;4.07;;;;;;;14.60;100.00;97603.41;18564641;32;20049;-57
2023/09/16 02:57:12;;;;;;;8.80;4.22;;;;;;;14.58;100.00;97607.22;18564012;32;20056;-57
2023/09/16 03:07:15;;;;;;;7.50;3.80;;;;;;;14.56;100.00;97601.25;18563519;32;20426;-56
2023/09/16 03:17:17;;;;;;;6.60;3.95;;;;;;;14.54;100.00;97584.44;18562752;32;20071;-56
2023/09/16 03:27:20;;;;;;;5.70;3.85;;;;;;;14.54;100.00;97578.22;18562376;32;20048;-56
2023/09/16 03:37:22;;;;;;;5.80;4.45;;;;;;;14.50;100.00;97566.28;18561770;32;20132;-56
2023/09/16 03:47:25;;;;;;;7.80;4.78;;;;;;;14.52;100.00;97558.62;18561730;32;20067;-56
2023/09/16 03:57:27;;;;;;;5.90;4.35;;;;;;;14.48;100.00;97541.31;18547098;32;20061;-56
2023/09/16 04:07:30;;;;;;;8.82;4.90;;;;;;;14.33;100.00;97537.72;18546422;32;20473;-56
2023/09/16 04:17:37;;;;;;;8.00;4.45;;;;;;;14.30;100.00;97524.72;18546273;32;20052;-56
2023/09/16 04:27:42;;;;;;;9.25;4.55;;;;;;;14.30;100.00;97516.56;18560587;32;20400;-56
2023/09/16 04:37:44;;;;;;;6.40;5.03;;;;;;;14.32;100.00;97527.12;18551045;32;20115;-56
2023/09/16 04:47:52;;;;;;;5.32;4.65;;;;;;;14.29;100.00;97517.66;18572604;31;20057;-57
2023/09/16 04:57:54;;;;;;;5.47;4.40;;;;;;;14.14;100.00;97510.59;18557614;32;20127;-56
2023/09/16 05:07:59;;;;;;;5.43;4.55;;;;;;;14.07;100.00;97499.28;18556642;32;20045;-56
2023/09/16 05:18:01;;;;;;;5.97;4.60;;;;;;;14.03;100.00;97485.47;18570382;32;20073;-56
2023/09/16 05:28:07;;;;;;;5.50;4.82;;;;;;;14.05;100.00;97505.00;18570020;32;20112;-56
2023/09/16 05:38:10;;;;;;;5.00;4.53;;;;;;;14.08;100.00;97503.59;18568850;32;20435;-59
2023/09/16 05:48:16;;;;;;;6.50;4.35;;;;;;;14.11;100.00;97519.31;18567957;32;20052;-59
2023/09/16 05:58:19;;;;;;;7.12;4.53;;;;;;;14.14;100.00;97526.09;18567982;32;20448;-59
2023/09/16 06:08:22;;;;;;;6.25;4.43;;;;;;;14.23;100.00;97519.66;18567343;32;20052;-56
2023/09/16 06:18:25;;;;;;;4.50;3.78;;;;;;;14.44;100.00;97519.31;18566765;32;20071;-56
2023/09/16 06:28:29;;;;;;;4.78;3.92;;;;;;;14.67;100.00;97528.47;18566045;32;20390;-56
2023/09/16 06:38:33;;;;;;;4.80;4.07;;;;;;;15.12;100.00;97527.88;18551275;32;20338;-57
2023/09/16 06:48:35;;;;;;;5.78;4.12;;;;;;;15.81;100.00;97543.34;18564744;32;20083;-57
2023/09/16 06:58:38;;;;;;;5.20;4.37;;;;;;;16.28;100.00;97545.81;18549781;32;20071;-57
2023/09/16 07:08:58;;;;;;;5.87;4.75;;;;;;;16.58;100.00;97559.78;18563617;32;20064;-57
2023/09/16 07:19:00;;;;;;;5.50;4.65;;;;;;;16.80;100.00;97553.50;18562828;32;20053;-57
2023/09/16 07:29:03;;;;;;;7.37;5.28;;;;;;;17.05;100.00;97567.63;18562354;32;20052;-56
2023/09/16 07:39:05;;;;;;;7.78;5.72;;;;;;;17.33;100.00;97570.13;18561486;32;20136;-57
2023/09/16 07:49:08;;;;;;;7.22;5.82;;;;;;;17.66;100.00;97576.00;18561520;32;20064;-57
2023/09/16 07:59:11;;;;;;;7.47;6.03;;;;;;;17.97;100.00;97564.16;18546411;32;20040;-57
2023/09/16 08:09:13;;;;;;;6.93;5.50;;;;;;;18.20;100.00;97573.03;18560075;32;20053;-57
2023/09/16 08:19:17;;;;;;;6.13;5.53;;;;;;;18.34;100.00;97588.47;18560389;32;20049;-57
2023/09/16 08:29:19;;;;;;;6.62;5.07;;;;;;;18.38;100.00;97601.19;18559740;31;20053;-57
2023/09/16 08:39:22;;;;;;;6.10;5.50;;;;;;;18.62;100.00;97594.38;18559383;32;20379;-57
2023/09/16 08:49:28;;;;;;;8.20;6.57;;;;;;;18.91;100.00;97592.91;18559493;32;20080;-57
2023/09/16 08:59:31;;;;;;;10.35;7.28;;;;;;;19.46;100.00;97599.50;18558890;32;20044;-56
2023/09/16 09:09:34;;;;;;;;;;;;;;;19.90;100.00;97612.97;18559200;32;20119;-57
2023/09/16 09:19:38;;;;;;;6.82;6.03;;;;;;;20.33;100.00;97617.34;18559020;32;19999;-57
2023/09/16 09:29:42;;;;;;;8.10;6.68;;;;;;;20.59;100.00;97625.34;18569607;32;20116;-57
2023/09/16 09:39:46;;;;;;;7.28;5.65;;;;;;;21.00;100.00;97614.63;18568722;32;20085;-57
2023/09/16 09:49:49;;;;;;;5.93;5.32;;;;;;;21.19;100.00;97616.06;18554257;32;20060;-57
2023/09/16 09:59:52;;;;;;;;;;;;;;;21.41;100.00;97615.59;18528777;32;20437;-57
2023/09/16 10:09:56;;;;;;;6.53;5.87;;;;;;;21.65;100.00;97581.00;18567656;32;19948;-57
2023/09/16 10:19:59;;;;;;;;;;;;;;;21.99;100.00;97582.47;18553118;32;20093;-57
2023/09/16 10:30:02;;;;;;;5.95;4.93;;;;;;;22.43;100.00;97580.97;18566273;32;19956;-57
2023/09/16 10:40:07;;;;;;;6.18;4.85;;;;;;;22.61;100.00;97579.53;18564492;32;20107;-57
2023/09/16 10:50:10;;;;;;;4.87;3.83;;;;;;;22.75;100.00;97573.59;18564812;32;20052;-57
2023/09/16 11:00:14;;;;;;;5.45;4.95;;;;;;;23.01;100.00;97569.53;18549961;32;20100;-57
2023/09/16 11:10:17;;;;;;;5.80;4.70;;;;;;;23.35;100.00;97573.56;18563362;31;20060;-57
2023/09/16 11:20:28;;;;;;;5.78;4.55;;;;;;;24.13;100.00;97561.13;18563067;32;20045;-57
2023/09/16 11:30:35;;;;;;;7.40;4.32;;;;;;;24.47;100.00;97553.91;18562549;32;20057;-57
2023/09/16 11:40:38;;;;;;;4.00;3.60;;;;;;;24.46;100.00;97568.09;18561833;32;20044;-57
2023/09/16 11:50:43;;;;;;;3.78;3.37;;;;;;;24.41;100.00;97546.31;18546098;32;20475;-57
2023/09/16 12:00:48;;;;;;;4.53;4.05;;;;;;;24.64;100.00;97541.66;18546703;32;20067;-57
2023/09/16 12:10:52;;;;;;;3.67;3.37;;;;;;;24.94;100.00;97542.94;18546392;32;20056;-57
2023/09/16 12:20:55;;;;;;;4.68;3.83;;;;;;;25.48;100.00;97549.41;18560065;32;20056;-57
2023/09/16 12:30:57;;;;;;;5.78;4.18;;;;;;;25.65;100.00;97550.81;18546360;32;20100;-57
2023/09/16 12:41:02;;;;;;;4.93;3.58;;;;;;;26.11;100.00;97558.22;18559179;32;20049;-57
2023/09/16 12:51:06;;;;;;;3.50;2.90;;;;;;;26.43;100.00;97552.28;18559268;32;20080;-57
2023/09/16 13:01:19;;;;;;;3.62;3.30;;;;;;;26.98;96.24;97552.47;18566980;31;20053;-57
2023/09/16 13:11:22;;;;;;;3.35;3.05;;;;;;;26.55;100.00;97552.00;18571082;32;20341;-57
2023/09/16 13:21:35;;;;;;;3.53;3.20;;;;;;;26.59;100.00;97546.50;18555855;32;20048;-57
2023/09/16 13:31:38;;;;;;;3.40;3.03;;;;;;;26.66;100.00;97544.59;18570180;32;20053;-57
2023/09/16 13:41:41;;;;;;;3.87;3.05;;;;;;;26.17;100.00;97529.78;18568694;32;20120;-57
2023/09/16 13:51:44;;;;;;;3.92;3.60;;;;;;;25.67;100.00;97538.22;18568319;31;20056;-57
2023/09/16 14:01:47;;;;;;;4.78;4.00;;;;;;;25.37;100.00;97541.72;18567834;32;20092;-57
2023/09/16 14:11:51;;;;;;;4.65;4.25;;;;;;;25.42;100.00;97560.00;18566413;32;20056;-57
2023/09/16 14:21:54;;;;;;;4.70;4.05;;;;;;;25.22;100.00;97547.37;18567002;32;20075;-58
2023/09/16 14:31:57;;;;;;;5.40;4.03;;;;;;;25.24;100.00;97558.88;18565894;32;20060;-57
2023/09/16 14:42:00;;;;;;;4.87;4.10;;;;;;;25.20;100.00;97567.91;18565193;32;20048;-57
2023/09/16 14:52:03;;;;;;;5.07;3.78;;;;;;;25.14;100.00;97574.12;18564618;32;20383;-57
2023/09/16 15:02:06;;;;;;;4.45;4.05;;;;;;;25.09;100.00;97571.66;18564349;32;20071;-57
2023/09/16 15:12:09;;;;;;;4.10;3.70;;;;;;;24.83;100.00;97570.41;18563579;32;20064;-57
2023/09/16 15:22:13;;;;;;;4.00;3.42;;;;;;;24.35;100.00;97574.22;18562737;32;20470;-57
2023/09/16 15:32:17;;;;;;;4.37;3.58;;;;;;;24.01;100.00;97570.34;18562407;32;20079;-57
2023/09/16 15:42:23;;;;;;;3.92;3.53;;;;;;;23.67;100.00;97561.69;18534788;32;20048;-57
2023/09/16 15:52:27;;;;;;;3.97;3.60;;;;;;;23.38;100.00;97561.03;18547271;32;20052;-57
2023/09/16 16:02:30;;;;;;;4.28;3.37;;;;;;;23.16;100.00;97566.00;18560764;32;20075;-57
2023/09/16 16:12:33;;;;;;;4.60;4.15;;;;;;;22.93;100.00;97552.00;18533264;32;20369;-57
2023/09/16 16:22:37;;;;;;;4.18;3.78;;;;;;;22.80;100.00;97559.56;18545940;32;20064;-57
2023/09/16 16:32:41;;;;;;;4.68;4.07;;;;;;;22.68;100.00;97557.66;18564814;32;20072;-57
2023/09/16 16:42:47;;;;;;;4.65;3.75;;;;;;;22.50;100.00;97550.84;18558292;32;20037;-56
2023/09/16 16:52:50;;;;;;;4.15;3.62;;;;;;;22.33;100.00;97558.25;18572327;32;20454;-56
2023/09/16 17:02:53;;;;;;;4.97;4.03;;;;;;;22.21;100.00;97561.03;18571671;32;20057;-56
2023/09/16 17:12:57;;;;;;;4.40;4.00;;;;;;;22.06;100.00;97551.56;18570964;32;20064;-57
2023/09/16 17:23:00;;;;;;;4.50;3.67;;;;;;;21.87;100.00;97563.22;18570777;32;20341;-55
2023/09/16 17:33:03;;;;;;;3.95;3.50;;;;;;;21.70;100.00;97547.75;18569376;31;20056;-57
2023/09/16 17:43:07;;;;;;;5.65;4.45;;;;;;;21.54;100.00;97544.91;18554910;32;20049;-56
2023/09/16 17:53:10;;;;;;;5.03;4.40;;;;;;;21.38;100.00;97543.97;18568358;32;20063;-56
2023/09/16 18:03:14;;;;;;;4.90;4.40;;;;;;;21.22;100.00;97552.91;18568016;32;20098;-56
2023/09/16 18:13:17;;;;;;;5.05;4.53;;;;;;;21.10;100.00;97553.72;18567402;32;20335;-56
2023/09/16 18:23:20;;;;;;;;;;;;;;;20.99;100.00;97553.38;18567439;32;20075;-56
2023/09/16 18:33:24;;;;;;;5.60;4.90;;;;;;;20.85;100.00;97557.59;18566146;32;19956;-56
2023/09/16 18:43:28;;;;;;;5.70;4.50;;;;;;;20.61;100.00;97570.88;18565126;32;20044;-57
2023/09/16 18:53:32;;;;;;;5.97;4.53;;;;;;;20.31;100.00;97568.25;18564390;32;20112;-56
2023/09/16 19:03:35;;;;;;;8.00;4.62;;;;;;;20.09;100.00;97579.56;18564209;32;20103;-56
2023/09/16 19:13:39;;;;;;;11.32;5.32;;;;;;;19.84;100.00;97584.13;18563669;32;20060;-56
2023/09/16 19:23:45;;;;;;;36.90;26.70;;;;;;;19.60;100.00;97589.06;18548547;31;20040;-57
2023/09/16 19:33:48;;;;;;;11.35;9.50;;;;;;;19.39;100.00;97599.19;18548169;32;20472;-56
2023/09/16 19:43:51;;;;;;;10.48;9.02;;;;;;;19.20;100.00;97611.38;18562056;32;20049;-57
2023/09/16 19:53:54;;;;;;;10.17;8.93;;;;;;;19.00;100.00;97610.13;18561655;32;20121;-56
2023/09/16 20:03:56;;;;;;;13.60;8.60;;;;;;;18.83;100.00;97610.97;18546463;32;20053;-57
2023/09/16 20:13:59;;;;;;;19.20;7.43;;;;;;;18.68;100.00;97608.72;18560479;32;20107;-57
2023/09/16 20:24:02;;;;;;;12.18;7.07;;;;;;;18.56;100.00;97610.19;18560416;32;20036;-57
2023/09/16 20:34:05;;;;;;;11.20;5.78;;;;;;;18.41;100.00;97610.69;18560053;32;20071;-56
2023/09/16 20:44:14;;;;;;;11.02;6.40;;;;;;;18.32;100.00;97607.16;18559548;32;20105;-56
2023/09/16 20:54:18;;;;;;;18.43;8.77;;;;;;;18.17;100.00;97617.47;18559730;32;20067;-56
2023/09/16 21:04:23;;;;;;;13.25;8.18;;;;;;;18.08;100.00;97617.44;18532231;32;20353;-57
2023/09/16 21:14:26;;;;;;;13.48;5.68;;;;;;;17.92;100.00;97608.91;18559033;32;20422;-57
2023/09/16 21:24:28;;;;;;;6.10;4.37;;;;;;;17.81;100.00;97621.22;18569274;32;20471;-56
2023/09/16 21:34:31;;;;;;;7.90;4.60;;;;;;;17.70;100.00;97622.66;18555603;32;20097;-56
2023/09/16 21:44:34;;;;;;;10.47;4.23;;;;;;;17.66;100.00;97614.28;18568877;32;20441;-56
2023/09/16 21:54:37;;;;;;;6.20;3.97;;;;;;;17.60;100.00;97624.56;18568438;32;20079;-56
2023/09/16 22:04:41;;;;;;;9.23;4.45;;;;;;;17.47;100.00;97616.47;18567902;31;20086;-57
2023/09/16 22:14:45;;;;;;;7.18;3.85;;;;;;;17.38;100.00;97625.44;18567505;32;20433;-56
2023/09/16 22:24:49;;;;;;;11.05;4.53;;;;;;;17.30;100.00;97622.69;18566779;32;20053;-56
2023/09/16 22:34:51;;;;;;;7.10;3.70;;;;;;;17.25;100.00;97629.91;18565464;32;20060;-56
2023/09/16 22:44:54;;;;;;;10.10;3.58;;;;;;;17.14;100.00;97623.09;18565201;32;20057;-56
2023/09/16 22:55:07;;;;;;;8.40;3.67;;;;;;;17.03;100.00;97636.22;18564973;31;20057;-56
2023/09/16 23:05:10;;;;;;;8.00;4.27;;;;;;;16.90;100.00;97648.03;18564420;32;20144;-56
2023/09/16 23:15:13;;;;;;;6.10;4.70;;;;;;;16.75;100.00;97647.25;18563433;32;20068;-56
2023/09/16 23:25:16;;;;;;;10.00;3.80;;;;;;;16.65;100.00;97644.81;18548854;32;20459;-56
2023/09/16 23:35:18;;;;;;;7.65;3.42;;;;;;;16.63;100.00;97649.75;18548597;32;20068;-56
2023/09/16 23:45:21;;;;;;;5.47;3.60;;;;;;;16.66;100.00;97659.25;18547211;32;20101;-56
2023/09/16 23:55:23;;;;;;;6.55;3.95;;;;;;;16.67;100.00;97660.87;18546847;32;20056;-56
